Pagrindinis puslapis
METAR-TAF:

METAR-TAF

Oro uostai :

Bužumbūra, Burundis

platuma: 03-19S, ilguma: 029-19E, Aukštis: 782 m

Dabartinis oras

Ataskaita buvo paskelbta 6 valandos ir 43 minutes, ne 15:00 UTC
Vėjas 24 kt iš Pietų
Temperatūra 30°C
Drėgmė 55%
Slėgis 1010 hPa
Matomumas: 9000 m
Išsisklaidę debesys ne aukštis 3000 ft, aukštai iškilę kamuoliniai debesys.
Su prošvaistėmis ne aukštis 10000 ft

METAR: HBBA 181500Z 18024KT 9000 SCT030TCU BKN100 30/20 Q1010 NOSIG

Laikas: 23:43 (21:43 UTC)

Prognozė

Ataskaita buvo paskelbta 4 valandos ir 43 minutes, ne 17:00 UTC
Prognozė galioja nuo 18 metu 18 UTC su 19 metu 24 UTC
Vėjas 5 kt iš Pietų su gūsio iki 25 kt
Matomumas 10 km arba daugiau
nėra debesų žemiau 1500 m ir nėra kamuolinių lietaus debesų

TAF: HBBA 181700Z 1818/1924 36004KT 9999 FEW030 BKN100 BECMG1903/1905 VRB03KT 5000HZ FEW025 SCT100 BECMG1908/1910 18012G25KT 8000 FEW035 BECMG1917/1919 18005KT CAVOK

Orai ataskaitas ir orų prognozės (METAR, TAF).

turimą stotys yra geltonos ir raudonos taškus žemėlapyje.

Perkelti pele per norėdami pamatyti stoties vardą.

Tada spustelėkite, norėdami matyti oro stebėjimo ir prognozės.

Norėdami pakeisti žemėlapį: spustelėkite ant žalios mygtukų su juodo kryžiaus žemyn,; žalią mygtuką su brūkšneliu, jei norite nutolinti; arba žalių rodyklių gretimoms žemėlapius.


METAR-TAF: